sensor_id;sensor_type;location;lat;lon;timestamp;temperature;humidity
29501;DHT22;16450;50.288;10.966;2023-02-27T00:00:26;-3.10;94.60
29501;DHT22;16450;50.288;10.966;2023-02-27T00:03:28;-3.20;94.60
29501;DHT22;16450;50.288;10.966;2023-02-27T00:06:30;-3.20;94.70
29501;DHT22;16450;50.288;10.966;2023-02-27T00:09:32;-3.20;94.90
29501;DHT22;16450;50.288;10.966;2023-02-27T00:12:34;-3.20;95.10
29501;DHT22;16450;50.288;10.966;2023-02-27T00:15:38;-3.20;95.10
29501;DHT22;16450;50.288;10.966;2023-02-27T00:18:41;-3.20;95.40
29501;DHT22;16450;50.288;10.966;2023-02-27T00:21:43;-3.20;95.40
29501;DHT22;16450;50.288;10.966;2023-02-27T00:24:45;-3.20;95.30
29501;DHT22;16450;50.288;10.966;2023-02-27T00:27:47;-3.20;95.30
29501;DHT22;16450;50.288;10.966;2023-02-27T00:30:49;-3.20;95.30
29501;DHT22;16450;50.288;10.966;2023-02-27T00:33:51;-3.20;95.20
29501;DHT22;16450;50.288;10.966;2023-02-27T00:36:53;-3.20;95.10
29501;DHT22;16450;50.288;10.966;2023-02-27T00:39:55;-3.30;94.90
29501;DHT22;16450;50.288;10.966;2023-02-27T00:42:57;-3.30;94.80
29501;DHT22;16450;50.288;10.966;2023-02-27T00:45:59;-3.40;94.70
29501;DHT22;16450;50.288;10.966;2023-02-27T00:49:00;-3.40;94.70
29501;DHT22;16450;50.288;10.966;2023-02-27T00:52:03;-3.50;94.70
29501;DHT22;16450;50.288;10.966;2023-02-27T00:55:06;-3.50;94.70
29501;DHT22;16450;50.288;10.966;2023-02-27T00:58:08;-3.50;94.90
29501;DHT22;16450;50.288;10.966;2023-02-27T01:01:10;-3.50;95.00
29501;DHT22;16450;50.288;10.966;2023-02-27T01:04:12;-3.50;95.10
29501;DHT22;16450;50.288;10.966;2023-02-27T01:07:14;-3.50;95.10
29501;DHT22;16450;50.288;10.966;2023-02-27T01:10:16;-3.50;95.00
29501;DHT22;16450;50.288;10.966;2023-02-27T01:13:18;-3.60;95.00
29501;DHT22;16450;50.288;10.966;2023-02-27T01:16:20;-3.60;94.90
29501;DHT22;16450;50.288;10.966;2023-02-27T01:19:23;-3.60;94.90
29501;DHT22;16450;50.288;10.966;2023-02-27T01:22:26;-3.60;94.90
29501;DHT22;16450;50.288;10.966;2023-02-27T01:25:28;-3.50;95.00
29501;DHT22;16450;50.288;10.966;2023-02-27T01:28:30;-3.60;95.10
29501;DHT22;16450;50.288;10.966;2023-02-27T01:31:32;-3.60;95.20
29501;DHT22;16450;50.288;10.966;2023-02-27T01:34:34;-3.60;95.30
29501;DHT22;16450;50.288;10.966;2023-02-27T01:37:37;-3.70;95.30
29501;DHT22;16450;50.288;10.966;2023-02-27T01:40:40;-3.60;95.30
29501;DHT22;16450;50.288;10.966;2023-02-27T01:44:15;-3.60;95.40
29501;DHT22;16450;50.288;10.966;2023-02-27T01:47:17;-3.60;94.90
29501;DHT22;16450;50.288;10.966;2023-02-27T01:50:19;-3.60;95.40
29501;DHT22;16450;50.288;10.966;2023-02-27T01:53:22;-3.60;95.30
29501;DHT22;16450;50.288;10.966;2023-02-27T01:56:28;-3.60;95.30
29501;DHT22;16450;50.288;10.966;2023-02-27T01:59:33;-3.60;95.20
29501;DHT22;16450;50.288;10.966;2023-02-27T02:02:41;-3.70;95.10
29501;DHT22;16450;50.288;10.966;2023-02-27T02:05:46;-3.70;94.90
29501;DHT22;16450;50.288;10.966;2023-02-27T02:08:50;-3.80;94.80
29501;DHT22;16450;50.288;10.966;2023-02-27T02:11:54;-3.80;94.60
29501;DHT22;16450;50.288;10.966;2023-02-27T02:14:57;-3.80;94.60
29501;DHT22;16450;50.288;10.966;2023-02-27T02:18:20;-3.90;94.50
29501;DHT22;16450;50.288;10.966;2023-02-27T02:42:55;-4.30;94.60
29501;DHT22;16450;50.288;10.966;2023-02-27T02:49:10;-4.30;94.70
29501;DHT22;16450;50.288;10.966;2023-02-27T02:55:28;-4.40;94.40
29501;DHT22;16450;50.288;10.966;2023-02-27T02:58:47;-4.40;94.50
29501;DHT22;16450;50.288;10.966;2023-02-27T03:02:07;-4.50;94.30
29501;DHT22;16450;50.288;10.966;2023-02-27T03:05:34;-4.50;94.30
29501;DHT22;16450;50.288;10.966;2023-02-27T03:08:43;-4.60;94.20
29501;DHT22;16450;50.288;10.966;2023-02-27T03:11:47;-4.60;94.30
29501;DHT22;16450;50.288;10.966;2023-02-27T03:18:14;-4.70;94.30
29501;DHT22;16450;50.288;10.966;2023-02-27T03:21:51;-4.70;94.30
29501;DHT22;16450;50.288;10.966;2023-02-27T03:24:56;-4.80;94.30
29501;DHT22;16450;50.288;10.966;2023-02-27T03:28:05;-4.80;94.40
29501;DHT22;16450;50.288;10.966;2023-02-27T03:31:16;-4.90;94.30
29501;DHT22;16450;50.288;10.966;2023-02-27T03:34:25;-4.90;94.40
29501;DHT22;16450;50.288;10.966;2023-02-27T03:44:15;-4.90;94.40
29501;DHT22;16450;50.288;10.966;2023-02-27T03:47:21;-5.00;94.40
29501;DHT22;16450;50.288;10.966;2023-02-27T03:50:23;-5.10;94.30
29501;DHT22;16450;50.288;10.966;2023-02-27T03:53:34;-5.10;94.40
29501;DHT22;16450;50.288;10.966;2023-02-27T03:56:47;-5.10;94.50
29501;DHT22;16450;50.288;10.966;2023-02-27T03:59:51;-5.20;94.60
29501;DHT22;16450;50.288;10.966;2023-02-27T04:02:56;-5.20;94.90
29501;DHT22;16450;50.288;10.966;2023-02-27T04:06:00;-5.20;95.00
29501;DHT22;16450;50.288;10.966;2023-02-27T04:09:48;-5.20;95.10
29501;DHT22;16450;50.288;10.966;2023-02-27T04:20:01;-5.20;94.90
29501;DHT22;16450;50.288;10.966;2023-02-27T04:23:12;-5.20;94.90
29501;DHT22;16450;50.288;10.966;2023-02-27T04:26:19;-5.20;95.00
29501;DHT22;16450;50.288;10.966;2023-02-27T04:29:45;-5.20;95.00
29501;DHT22;16450;50.288;10.966;2023-02-27T04:33:00;-5.20;95.20
29501;DHT22;16450;50.288;10.966;2023-02-27T04:36:08;-5.20;95.00
29501;DHT22;16450;50.288;10.966;2023-02-27T04:40:09;-5.20;95.10
29501;DHT22;16450;50.288;10.966;2023-02-27T04:43:05;-5.20;95.10
29501;DHT22;16450;50.288;10.966;2023-02-27T04:46:11;-5.20;95.10
29501;DHT22;16450;50.288;10.966;2023-02-27T04:49:27;-5.20;95.10
29501;DHT22;16450;50.288;10.966;2023-02-27T04:52:35;-5.30;94.90
29501;DHT22;16450;50.288;10.966;2023-02-27T04:55:43;-5.30;94.90
29501;DHT22;16450;50.288;10.966;2023-02-27T04:58:51;-5.30;94.90
29501;DHT22;16450;50.288;10.966;2023-02-27T05:05:24;-5.40;95.00
29501;DHT22;16450;50.288;10.966;2023-02-27T05:18:06;-5.30;95.90
29501;DHT22;16450;50.288;10.966;2023-02-27T05:21:30;-5.30;95.90
29501;DHT22;16450;50.288;10.966;2023-02-27T05:27:46;-5.20;96.40
29501;DHT22;16450;50.288;10.966;2023-02-27T05:30:56;-5.20;96.40
29501;DHT22;16450;50.288;10.966;2023-02-27T05:34:17;-5.10;96.50
29501;DHT22;16450;50.288;10.966;2023-02-27T05:40:46;-4.90;96.60
29501;DHT22;16450;50.288;10.966;2023-02-27T05:43:54;-4.90;96.70
29501;DHT22;16450;50.288;10.966;2023-02-27T05:47:03;-4.90;96.80
29501;DHT22;16450;50.288;10.966;2023-02-27T05:50:10;-4.80;96.80
29501;DHT22;16450;50.288;10.966;2023-02-27T05:53:17;-4.80;96.80
29501;DHT22;16450;50.288;10.966;2023-02-27T05:56:20;-4.70;96.90
29501;DHT22;16450;50.288;10.966;2023-02-27T05:59:33;-4.70;96.90
29501;DHT22;16450;50.288;10.966;2023-02-27T06:02:36;-4.70;96.80
29501;DHT22;16450;50.288;10.966;2023-02-27T06:05:40;-4.70;96.90
29501;DHT22;16450;50.288;10.966;2023-02-27T06:08:43;-4.70;96.80
29501;DHT22;16450;50.288;10.966;2023-02-27T06:11:45;-4.70;96.70
29501;DHT22;16450;50.288;10.966;2023-02-27T06:14:48;-4.70;96.70
29501;DHT22;16450;50.288;10.966;2023-02-27T06:17:50;-4.70;96.80
29501;DHT22;16450;50.288;10.966;2023-02-27T06:20:52;-4.70;96.90
29501;DHT22;16450;50.288;10.966;2023-02-27T06:23:54;-4.60;97.00
29501;DHT22;16450;50.288;10.966;2023-02-27T06:26:57;-4.60;97.10
29501;DHT22;16450;50.288;10.966;2023-02-27T06:29:59;-4.60;97.30
29501;DHT22;16450;50.288;10.966;2023-02-27T06:33:02;-4.60;97.40
29501;DHT22;16450;50.288;10.966;2023-02-27T06:36:04;-4.50;97.60
29501;DHT22;16450;50.288;10.966;2023-02-27T06:39:06;-4.50;97.70
29501;DHT22;16450;50.288;10.966;2023-02-27T06:42:08;-4.40;97.80
29501;DHT22;16450;50.288;10.966;2023-02-27T06:45:11;-4.40;97.90
29501;DHT22;16450;50.288;10.966;2023-02-27T06:48:14;-4.30;98.00
29501;DHT22;16450;50.288;10.966;2023-02-27T06:51:16;-4.30;98.10
29501;DHT22;16450;50.288;10.966;2023-02-27T06:54:18;-4.20;98.20
29501;DHT22;16450;50.288;10.966;2023-02-27T06:57:20;-4.20;98.30
29501;DHT22;16450;50.288;10.966;2023-02-27T07:00:22;-4.10;98.30
29501;DHT22;16450;50.288;10.966;2023-02-27T07:03:24;-4.10;98.40
29501;DHT22;16450;50.288;10.966;2023-02-27T07:06:26;-4.00;98.60
29501;DHT22;16450;50.288;10.966;2023-02-27T07:09:48;-3.90;98.70
29501;DHT22;16450;50.288;10.966;2023-02-27T07:12:50;-3.80;98.70
29501;DHT22;16450;50.288;10.966;2023-02-27T07:15:52;-3.70;98.90
29501;DHT22;16450;50.288;10.966;2023-02-27T07:18:54;-3.70;98.90
29501;DHT22;16450;50.288;10.966;2023-02-27T07:21:56;-3.60;98.90
29501;DHT22;16450;50.288;10.966;2023-02-27T07:24:58;-3.50;99.00
29501;DHT22;16450;50.288;10.966;2023-02-27T07:28:00;-3.50;98.90
29501;DHT22;16450;50.288;10.966;2023-02-27T07:31:02;-3.40;98.90
29501;DHT22;16450;50.288;10.966;2023-02-27T07:34:04;-3.30;99.00
29501;DHT22;16450;50.288;10.966;2023-02-27T07:37:06;-3.20;99.00
29501;DHT22;16450;50.288;10.966;2023-02-27T07:40:09;-3.10;99.10
29501;DHT22;16450;50.288;10.966;2023-02-27T07:43:11;-3.10;99.10
29501;DHT22;16450;50.288;10.966;2023-02-27T07:46:13;-2.90;99.10
29501;DHT22;16450;50.288;10.966;2023-02-27T07:49:15;-2.90;99.20
29501;DHT22;16450;50.288;10.966;2023-02-27T07:52:17;-2.80;99.50
29501;DHT22;16450;50.288;10.966;2023-02-27T07:55:19;-2.70;99.20
29501;DHT22;16450;50.288;10.966;2023-02-27T07:58:20;-2.60;99.30
29501;DHT22;16450;50.288;10.966;2023-02-27T08:01:22;-2.50;99.30
29501;DHT22;16450;50.288;10.966;2023-02-27T08:04:24;-2.50;99.30
29501;DHT22;16450;50.288;10.966;2023-02-27T08:07:26;-2.40;99.30
29501;DHT22;16450;50.288;10.966;2023-02-27T08:10:28;-2.30;99.40
29501;DHT22;16450;50.288;10.966;2023-02-27T08:13:30;-2.20;99.30
29501;DHT22;16450;50.288;10.966;2023-02-27T08:16:52;-2.20;99.30
29501;DHT22;16450;50.288;10.966;2023-02-27T08:19:53;-2.10;99.30
29501;DHT22;16450;50.288;10.966;2023-02-27T08:22:55;-2.00;99.30
29501;DHT22;16450;50.288;10.966;2023-02-27T08:25:57;-1.90;99.30
29501;DHT22;16450;50.288;10.966;2023-02-27T08:28:59;-1.90;99.30
29501;DHT22;16450;50.288;10.966;2023-02-27T08:32:01;-1.80;99.30
29501;DHT22;16450;50.288;10.966;2023-02-27T08:35:04;-1.70;99.20
29501;DHT22;16450;50.288;10.966;2023-02-27T08:38:06;-1.70;99.20
29501;DHT22;16450;50.288;10.966;2023-02-27T08:41:08;-1.60;99.30
29501;DHT22;16450;50.288;10.966;2023-02-27T08:44:11;-1.60;99.20
29501;DHT22;16450;50.288;10.966;2023-02-27T08:47:13;-1.50;99.30
29501;DHT22;16450;50.288;10.966;2023-02-27T08:50:15;-1.50;99.20
29501;DHT22;16450;50.288;10.966;2023-02-27T08:53:17;-1.40;99.20
29501;DHT22;16450;50.288;10.966;2023-02-27T08:56:19;-1.40;99.20
29501;DHT22;16450;50.288;10.966;2023-02-27T08:59:21;-1.40;99.50
29501;DHT22;16450;50.288;10.966;2023-02-27T09:02:22;-1.30;99.70
29501;DHT22;16450;50.288;10.966;2023-02-27T09:05:27;-1.20;99.60
29501;DHT22;16450;50.288;10.966;2023-02-27T09:08:29;-1.20;99.60
29501;DHT22;16450;50.288;10.966;2023-02-27T09:11:31;-1.10;99.30
29501;DHT22;16450;50.288;10.966;2023-02-27T09:14:33;-1.00;99.20
29501;DHT22;16450;50.288;10.966;2023-02-27T09:17:35;-1.00;99.40
29501;DHT22;16450;50.288;10.966;2023-02-27T09:20:36;-0.90;99.50
29501;DHT22;16450;50.288;10.966;2023-02-27T09:23:40;-0.90;99.30
29501;DHT22;16450;50.288;10.966;2023-02-27T09:26:42;-0.80;99.20
29501;DHT22;16450;50.288;10.966;2023-02-27T09:29:47;-0.70;99.30
29501;DHT22;16450;50.288;10.966;2023-02-27T09:32:50;-0.70;99.10
29501;DHT22;16450;50.288;10.966;2023-02-27T09:35:52;-0.60;99.10
29501;DHT22;16450;50.288;10.966;2023-02-27T09:38:54;-0.60;99.10
29501;DHT22;16450;50.288;10.966;2023-02-27T09:42:02;-0.50;99.20
29501;DHT22;16450;50.288;10.966;2023-02-27T09:45:06;-0.40;99.10
29501;DHT22;16450;50.288;10.966;2023-02-27T09:48:20;-0.20;99.90
29501;DHT22;16450;50.288;10.966;2023-02-27T09:51:26;0.00;99.30
29501;DHT22;16450;50.288;10.966;2023-02-27T09:54:31;0.30;99.90
29501;DHT22;16450;50.288;10.966;2023-02-27T09:58:13;0.60;99.90
29501;DHT22;16450;50.288;10.966;2023-02-27T10:04:51;1.20;99.90
29501;DHT22;16450;50.288;10.966;2023-02-27T10:11:04;1.70;99.90
29501;DHT22;16450;50.288;10.966;2023-02-27T10:14:32;1.90;99.10
29501;DHT22;16450;50.288;10.966;2023-02-27T10:17:43;2.10;98.40
29501;DHT22;16450;50.288;10.966;2023-02-27T10:27:14;2.30;97.60
29501;DHT22;16450;50.288;10.966;2023-02-27T10:30:25;2.40;97.60
29501;DHT22;16450;50.288;10.966;2023-02-27T10:33:41;2.50;97.00
29501;DHT22;16450;50.288;10.966;2023-02-27T10:36:45;2.60;96.90
29501;DHT22;16450;50.288;10.966;2023-02-27T10:39:52;2.60;98.60
29501;DHT22;16450;50.288;10.966;2023-02-27T10:42:58;2.70;97.70
29501;DHT22;16450;50.288;10.966;2023-02-27T10:46:09;2.80;97.80
29501;DHT22;16450;50.288;10.966;2023-02-27T10:49:18;2.80;97.80
29501;DHT22;16450;50.288;10.966;2023-02-27T10:52:21;2.90;97.30
29501;DHT22;16450;50.288;10.966;2023-02-27T10:55:34;2.90;98.70
29501;DHT22;16450;50.288;10.966;2023-02-27T10:58:37;3.00;96.60
29501;DHT22;16450;50.288;10.966;2023-02-27T11:01:47;2.90;98.60
29501;DHT22;16450;50.288;10.966;2023-02-27T11:04:55;3.00;97.60
29501;DHT22;16450;50.288;10.966;2023-02-27T11:08:26;3.00;97.50
29501;DHT22;16450;50.288;10.966;2023-02-27T11:11:28;3.00;95.50
29501;DHT22;16450;50.288;10.966;2023-02-27T11:14:32;3.00;98.60
29501;DHT22;16450;50.288;10.966;2023-02-27T11:17:34;2.90;97.60
29501;DHT22;16450;50.288;10.966;2023-02-27T11:20:38;2.90;98.20
29501;DHT22;16450;50.288;10.966;2023-02-27T11:24:05;2.90;97.90
29501;DHT22;16450;50.288;10.966;2023-02-27T11:27:35;2.90;96.50
29501;DHT22;16450;50.288;10.966;2023-02-27T11:30:37;2.80;95.90
29501;DHT22;16450;50.288;10.966;2023-02-27T11:33:39;2.80;98.20
29501;DHT22;16450;50.288;10.966;2023-02-27T11:36:52;2.80;97.90
29501;DHT22;16450;50.288;10.966;2023-02-27T11:43:23;2.80;96.30
29501;DHT22;16450;50.288;10.966;2023-02-27T11:46:26;2.80;97.60
29501;DHT22;16450;50.288;10.966;2023-02-27T11:56:43;3.00;98.90
29501;DHT22;16450;50.288;10.966;2023-02-27T11:59:53;3.20;98.70
29501;DHT22;16450;50.288;10.966;2023-02-27T12:06:34;3.40;96.50
29501;DHT22;16450;50.288;10.966;2023-02-27T12:16:06;3.60;97.00
29501;DHT22;16450;50.288;10.966;2023-02-27T12:19:29;3.70;97.90
29501;DHT22;16450;50.288;10.966;2023-02-27T12:22:35;3.70;96.40
29501;DHT22;16450;50.288;10.966;2023-02-27T12:25:52;3.80;98.00
29501;DHT22;16450;50.288;10.966;2023-02-27T12:29:22;3.90;96.70
29501;DHT22;16450;50.288;10.966;2023-02-27T12:32:42;4.00;97.40
29501;DHT22;16450;50.288;10.966;2023-02-27T12:36:00;4.00;97.50
29501;DHT22;16450;50.288;10.966;2023-02-27T12:39:03;4.00;97.10
29501;DHT22;16450;50.288;10.966;2023-02-27T12:52:36;4.20;95.80
29501;DHT22;16450;50.288;10.966;2023-02-27T12:55:43;4.20;95.40
29501;DHT22;16450;50.288;10.966;2023-02-27T13:02:32;4.20;95.80
29501;DHT22;16450;50.288;10.966;2023-02-27T13:05:54;4.10;97.30
29501;DHT22;16450;50.288;10.966;2023-02-27T13:09:19;4.10;96.90
29501;DHT22;16450;50.288;10.966;2023-02-27T13:15:50;4.00;98.00
29501;DHT22;16450;50.288;10.966;2023-02-27T13:18:56;3.90;95.30
29501;DHT22;16450;50.288;10.966;2023-02-27T13:25:14;3.70;95.20
29501;DHT22;16450;50.288;10.966;2023-02-27T13:28:21;3.70;95.90
29501;DHT22;16450;50.288;10.966;2023-02-27T13:32:00;3.60;96.90
29501;DHT22;16450;50.288;10.966;2023-02-27T13:41:43;3.70;95.60
29501;DHT22;16450;50.288;10.966;2023-02-27T13:44:45;3.80;97.80
29501;DHT22;16450;50.288;10.966;2023-02-27T13:47:48;3.70;97.50
29501;DHT22;16450;50.288;10.966;2023-02-27T13:50:51;3.70;97.50
29501;DHT22;16450;50.288;10.966;2023-02-27T13:57:23;3.70;95.80
29501;DHT22;16450;50.288;10.966;2023-02-27T14:00:29;3.80;96.60
29501;DHT22;16450;50.288;10.966;2023-02-27T14:03:31;3.90;97.20
29501;DHT22;16450;50.288;10.966;2023-02-27T14:06:42;3.90;97.40
29501;DHT22;16450;50.288;10.966;2023-02-27T14:09:48;3.90;96.00
29501;DHT22;16450;50.288;10.966;2023-02-27T14:12:50;3.90;97.40
29501;DHT22;16450;50.288;10.966;2023-02-27T14:15:55;3.90;97.80
29501;DHT22;16450;50.288;10.966;2023-02-27T14:18:59;4.00;96.90
29501;DHT22;16450;50.288;10.966;2023-02-27T14:22:35;3.90;96.60
29501;DHT22;16450;50.288;10.966;2023-02-27T14:25:40;3.90;94.60
29501;DHT22;16450;50.288;10.966;2023-02-27T14:28:48;3.80;95.90
29501;DHT22;16450;50.288;10.966;2023-02-27T14:31:53;3.60;94.80
29501;DHT22;16450;50.288;10.966;2023-02-27T14:34:55;3.50;95.40
29501;DHT22;16450;50.288;10.966;2023-02-27T14:37:59;3.40;96.20
29501;DHT22;16450;50.288;10.966;2023-02-27T14:41:31;3.30;95.70
29501;DHT22;16450;50.288;10.966;2023-02-27T14:44:41;3.20;94.30
29501;DHT22;16450;50.288;10.966;2023-02-27T14:47:44;3.10;95.50
29501;DHT22;16450;50.288;10.966;2023-02-27T14:50:51;3.00;96.50
29501;DHT22;16450;50.288;10.966;2023-02-27T14:54:22;3.00;95.40
29501;DHT22;16450;50.288;10.966;2023-02-27T14:57:24;2.90;95.20
29501;DHT22;16450;50.288;10.966;2023-02-27T15:03:40;2.70;96.30
29501;DHT22;16450;50.288;10.966;2023-02-27T15:06:48;2.60;94.90
29501;DHT22;16450;50.288;10.966;2023-02-27T15:09:54;2.50;95.60
29501;DHT22;16450;50.288;10.966;2023-02-27T15:12:58;2.40;95.60
29501;DHT22;16450;50.288;10.966;2023-02-27T15:16:30;2.30;96.00
29501;DHT22;16450;50.288;10.966;2023-02-27T15:19:33;2.30;94.50
29501;DHT22;16450;50.288;10.966;2023-02-27T15:22:36;2.30;96.80
29501;DHT22;16450;50.288;10.966;2023-02-27T15:25:40;2.30;96.70
29501;DHT22;16450;50.288;10.966;2023-02-27T15:28:42;2.30;97.10
29501;DHT22;16450;50.288;10.966;2023-02-27T15:31:44;2.40;97.50
29501;DHT22;16450;50.288;10.966;2023-02-27T15:34:47;2.40;97.60
29501;DHT22;16450;50.288;10.966;2023-02-27T15:37:55;2.50;97.60
29501;DHT22;16450;50.288;10.966;2023-02-27T15:40:58;2.60;96.60
29501;DHT22;16450;50.288;10.966;2023-02-27T15:44:02;2.60;97.10
29501;DHT22;16450;50.288;10.966;2023-02-27T15:47:05;2.60;96.80
29501;DHT22;16450;50.288;10.966;2023-02-27T15:50:09;2.50;96.80
29501;DHT22;16450;50.288;10.966;2023-02-27T15:53:23;2.50;96.40
29501;DHT22;16450;50.288;10.966;2023-02-27T15:56:33;2.40;94.80
29501;DHT22;16450;50.288;10.966;2023-02-27T15:59:39;2.30;95.30
29501;DHT22;16450;50.288;10.966;2023-02-27T16:02:53;2.30;95.50
29501;DHT22;16450;50.288;10.966;2023-02-27T16:05:55;2.20;94.50
29501;DHT22;16450;50.288;10.966;2023-02-27T16:12:23;2.10;95.50
29501;DHT22;16450;50.288;10.966;2023-02-27T16:15:33;2.10;95.10
29501;DHT22;16450;50.288;10.966;2023-02-27T16:18:45;2.00;95.50
29501;DHT22;16450;50.288;10.966;2023-02-27T16:22:05;2.00;95.20
29501;DHT22;16450;50.288;10.966;2023-02-27T16:25:09;1.90;94.40
29501;DHT22;16450;50.288;10.966;2023-02-27T16:28:13;1.90;95.60
29501;DHT22;16450;50.288;10.966;2023-02-27T16:31:25;1.80;95.40
29501;DHT22;16450;50.288;10.966;2023-02-27T16:34:34;1.70;94.70
29501;DHT22;16450;50.288;10.966;2023-02-27T16:37:47;1.60;95.20
29501;DHT22;16450;50.288;10.966;2023-02-27T16:40:49;1.50;94.80
29501;DHT22;16450;50.288;10.966;2023-02-27T16:43:52;1.40;94.80
29501;DHT22;16450;50.288;10.966;2023-02-27T16:46:55;1.40;94.70
29501;DHT22;16450;50.288;10.966;2023-02-27T16:49:57;1.30;94.50
29501;DHT22;16450;50.288;10.966;2023-02-27T16:52:59;1.20;94.60
29501;DHT22;16450;50.288;10.966;2023-02-27T16:56:01;1.10;94.40
29501;DHT22;16450;50.288;10.966;2023-02-27T16:59:04;1.10;94.40
29501;DHT22;16450;50.288;10.966;2023-02-27T17:02:14;1.00;94.40
29501;DHT22;16450;50.288;10.966;2023-02-27T17:05:16;0.90;93.40
29501;DHT22;16450;50.288;10.966;2023-02-27T17:08:18;0.80;94.00
29501;DHT22;16450;50.288;10.966;2023-02-27T17:11:22;0.80;94.00
29501;DHT22;16450;50.288;10.966;2023-02-27T17:14:24;0.70;94.00
29501;DHT22;16450;50.288;10.966;2023-02-27T17:17:26;0.70;94.00
29501;DHT22;16450;50.288;10.966;2023-02-27T17:20:28;0.60;94.00
29501;DHT22;16450;50.288;10.966;2023-02-27T17:23:30;0.50;94.20
29501;DHT22;16450;50.288;10.966;2023-02-27T17:26:33;0.50;94.10
29501;DHT22;16450;50.288;10.966;2023-02-27T17:29:36;0.40;94.10
29501;DHT22;16450;50.288;10.966;2023-02-27T17:32:39;0.30;94.00
29501;DHT22;16450;50.288;10.966;2023-02-27T17:35:41;0.30;94.30
29501;DHT22;16450;50.288;10.966;2023-02-27T17:38:43;0.20;94.30
29501;DHT22;16450;50.288;10.966;2023-02-27T17:41:45;0.20;94.30
29501;DHT22;16450;50.288;10.966;2023-02-27T17:44:47;0.10;94.10
29501;DHT22;16450;50.288;10.966;2023-02-27T17:47:49;0.10;94.30
29501;DHT22;16450;50.288;10.966;2023-02-27T17:50:51;0.10;94.60
29501;DHT22;16450;50.288;10.966;2023-02-27T17:53:53;0.00;94.60
29501;DHT22;16450;50.288;10.966;2023-02-27T17:56:55;0.00;94.70
29501;DHT22;16450;50.288;10.966;2023-02-27T17:59:57;0.00;94.70
29501;DHT22;16450;50.288;10.966;2023-02-27T18:02:59;-0.10;94.70
29501;DHT22;16450;50.288;10.966;2023-02-27T18:06:03;-0.10;94.70
29501;DHT22;16450;50.288;10.966;2023-02-27T18:09:05;-0.10;94.60
29501;DHT22;16450;50.288;10.966;2023-02-27T18:12:07;-0.20;94.60
29501;DHT22;16450;50.288;10.966;2023-02-27T18:15:09;-0.20;94.60
29501;DHT22;16450;50.288;10.966;2023-02-27T18:18:11;-0.30;94.50
29501;DHT22;16450;50.288;10.966;2023-02-27T18:21:16;-0.30;94.50
29501;DHT22;16450;50.288;10.966;2023-02-27T18:24:20;-0.30;94.40
29501;DHT22;16450;50.288;10.966;2023-02-27T18:27:22;-0.30;94.60
29501;DHT22;16450;50.288;10.966;2023-02-27T18:30:24;-0.40;94.60
29501;DHT22;16450;50.288;10.966;2023-02-27T18:33:26;-0.40;94.60
29501;DHT22;16450;50.288;10.966;2023-02-27T18:36:28;-0.40;94.60
29501;DHT22;16450;50.288;10.966;2023-02-27T18:39:31;-0.50;94.50
29501;DHT22;16450;50.288;10.966;2023-02-27T18:42:33;-0.50;94.80
29501;DHT22;16450;50.288;10.966;2023-02-27T18:45:36;-0.60;94.40
29501;DHT22;16450;50.288;10.966;2023-02-27T18:48:43;-0.60;95.00
29501;DHT22;16450;50.288;10.966;2023-02-27T18:51:45;-0.60;95.30
29501;DHT22;16450;50.288;10.966;2023-02-27T18:54:47;-0.60;95.70
29501;DHT22;16450;50.288;10.966;2023-02-27T18:57:49;-0.50;95.90
29501;DHT22;16450;50.288;10.966;2023-02-27T19:00:51;-0.60;95.90
29501;DHT22;16450;50.288;10.966;2023-02-27T19:03:54;-0.60;95.90
29501;DHT22;16450;50.288;10.966;2023-02-27T19:07:01;-0.60;95.90
29501;DHT22;16450;50.288;10.966;2023-02-27T19:10:04;-0.60;95.90
29501;DHT22;16450;50.288;10.966;2023-02-27T19:13:07;-0.60;95.80
29501;DHT22;16450;50.288;10.966;2023-02-27T19:16:10;-0.70;95.90
29501;DHT22;16450;50.288;10.966;2023-02-27T19:19:12;-0.70;95.90
29501;DHT22;16450;50.288;10.966;2023-02-27T19:22:14;-0.70;96.00
29501;DHT22;16450;50.288;10.966;2023-02-27T19:25:17;-0.70;96.00
29501;DHT22;16450;50.288;10.966;2023-02-27T19:28:19;-0.70;96.00
29501;DHT22;16450;50.288;10.966;2023-02-27T19:31:22;-0.80;95.90
29501;DHT22;16450;50.288;10.966;2023-02-27T19:34:24;-0.90;95.60
29501;DHT22;16450;50.288;10.966;2023-02-27T19:37:27;-0.90;95.80
29501;DHT22;16450;50.288;10.966;2023-02-27T19:40:29;-0.90;95.70
29501;DHT22;16450;50.288;10.966;2023-02-27T19:43:31;-1.00;95.60
29501;DHT22;16450;50.288;10.966;2023-02-27T19:46:34;-1.00;95.60
29501;DHT22;16450;50.288;10.966;2023-02-27T19:49:36;-1.10;95.40
29501;DHT22;16450;50.288;10.966;2023-02-27T19:52:38;-1.10;95.50
29501;DHT22;16450;50.288;10.966;2023-02-27T19:55:40;-1.20;95.40
29501;DHT22;16450;50.288;10.966;2023-02-27T19:58:42;-1.20;95.30
29501;DHT22;16450;50.288;10.966;2023-02-27T20:01:44;-1.20;95.30
29501;DHT22;16450;50.288;10.966;2023-02-27T20:04:46;-1.20;95.30
29501;DHT22;16450;50.288;10.966;2023-02-27T20:07:47;-1.30;95.30
29501;DHT22;16450;50.288;10.966;2023-02-27T20:10:57;-1.30;95.40
29501;DHT22;16450;50.288;10.966;2023-02-27T20:14:00;-1.40;95.10
29501;DHT22;16450;50.288;10.966;2023-02-27T20:17:02;-1.40;95.60
29501;DHT22;16450;50.288;10.966;2023-02-27T20:20:05;-1.30;95.90
29501;DHT22;16450;50.288;10.966;2023-02-27T20:23:07;-1.30;96.10
29501;DHT22;16450;50.288;10.966;2023-02-27T20:26:14;-1.30;96.40
29501;DHT22;16450;50.288;10.966;2023-02-27T20:29:19;-1.30;96.20
29501;DHT22;16450;50.288;10.966;2023-02-27T20:32:22;-1.30;96.40
29501;DHT22;16450;50.288;10.966;2023-02-27T20:35:24;-1.20;96.60
29501;DHT22;16450;50.288;10.966;2023-02-27T20:38:26;-1.20;96.80
29501;DHT22;16450;50.288;10.966;2023-02-27T20:41:29;-1.20;96.80
29501;DHT22;16450;50.288;10.966;2023-02-27T20:44:32;-1.20;97.00
29501;DHT22;16450;50.288;10.966;2023-02-27T20:47:33;-1.10;97.00
29501;DHT22;16450;50.288;10.966;2023-02-27T20:50:35;-1.10;97.10
29501;DHT22;16450;50.288;10.966;2023-02-27T20:53:38;-1.10;97.10
29501;DHT22;16450;50.288;10.966;2023-02-27T20:56:41;-1.10;97.10
29501;DHT22;16450;50.288;10.966;2023-02-27T20:59:43;-1.10;97.20
29501;DHT22;16450;50.288;10.966;2023-02-27T21:02:45;-1.10;97.20
29501;DHT22;16450;50.288;10.966;2023-02-27T21:05:48;-1.00;97.20
29501;DHT22;16450;50.288;10.966;2023-02-27T21:08:53;-1.00;97.00
29501;DHT22;16450;50.288;10.966;2023-02-27T21:11:55;-1.00;96.90
29501;DHT22;16450;50.288;10.966;2023-02-27T21:14:57;-1.00;97.00
29501;DHT22;16450;50.288;10.966;2023-02-27T21:17:59;-1.00;97.00
29501;DHT22;16450;50.288;10.966;2023-02-27T21:21:10;-1.00;97.00
29501;DHT22;16450;50.288;10.966;2023-02-27T21:24:14;-1.00;96.70
29501;DHT22;16450;50.288;10.966;2023-02-27T21:27:16;-1.00;96.80
29501;DHT22;16450;50.288;10.966;2023-02-27T21:30:20;-1.00;96.80
29501;DHT22;16450;50.288;10.966;2023-02-27T21:33:22;-1.10;96.70
29501;DHT22;16450;50.288;10.966;2023-02-27T21:36:25;-1.10;96.70
29501;DHT22;16450;50.288;10.966;2023-02-27T21:39:28;-1.10;96.50